createdAt,value
2023-05-08T00:00:24.279Z,4.32
2023-05-08T00:02:31.825Z,4.22
2023-05-08T00:04:37.028Z,4.00
2023-05-08T00:06:41.883Z,4.18
2023-05-08T00:08:46.694Z,4.20
2023-05-08T00:10:51.702Z,4.43
2023-05-08T00:12:56.693Z,4.25
2023-05-08T00:15:01.758Z,4.63
2023-05-08T00:17:06.665Z,3.95
2023-05-08T00:19:14.243Z,4.25
2023-05-08T00:21:18.957Z,4.38
2023-05-08T00:23:24.041Z,3.78
2023-05-08T00:25:31.501Z,3.90
2023-05-08T00:27:36.399Z,3.90
2023-05-08T00:29:41.701Z,4.20
2023-05-08T00:31:46.606Z,3.80
2023-05-08T00:33:51.502Z,3.67
2023-05-08T00:36:04.327Z,3.80
2023-05-08T00:38:09.130Z,3.70
2023-05-08T00:40:14.936Z,4.00
2023-05-08T00:42:20.354Z,3.90
2023-05-08T00:44:25.219Z,4.30
2023-05-08T00:46:30.423Z,4.05
2023-05-08T00:48:37.936Z,4.30
2023-05-08T00:50:42.916Z,4.45
2023-05-08T00:52:50.463Z,3.65
2023-05-08T00:54:55.277Z,4.18
2023-05-08T00:57:00.149Z,4.15
2023-05-08T00:59:06.522Z,4.40
2023-05-08T01:01:11.690Z,4.35
2023-05-08T01:03:17.451Z,4.22
2023-05-08T01:05:22.504Z,3.90
2023-05-08T01:07:27.816Z,3.63
2023-05-08T01:09:36.175Z,4.68
2023-05-08T01:11:47.435Z,4.43
2023-05-08T01:13:58.403Z,4.80
2023-05-08T01:16:10.728Z,4.70
2023-05-08T01:18:20.240Z,4.82
2023-05-08T01:20:37.636Z,4.68
2023-05-08T01:23:04.022Z,4.55
2023-05-08T01:25:44.446Z,4.63
2023-05-08T01:28:11.059Z,4.32
2023-05-08T01:30:32.308Z,4.00
2023-05-08T01:32:43.393Z,4.03
2023-05-08T01:34:58.808Z,4.28
2023-05-08T01:37:05.744Z,4.75
2023-05-08T01:39:23.209Z,4.30
2023-05-08T01:41:31.087Z,4.25
2023-05-08T01:43:55.165Z,4.75
2023-05-08T01:46:02.263Z,4.70
2023-05-08T01:48:14.785Z,4.32
2023-05-08T01:52:34.748Z,4.22
2023-05-08T01:54:45.862Z,4.85
2023-05-08T01:56:51.754Z,4.72
2023-05-08T01:58:59.716Z,5.15
2023-05-08T02:01:05.350Z,5.05
2023-05-08T02:03:16.605Z,4.82
2023-05-08T02:05:23.780Z,5.22
2023-05-08T02:07:29.802Z,4.97
2023-05-08T02:09:35.181Z,4.97
2023-05-08T02:11:42.274Z,5.22
2023-05-08T02:13:50.047Z,5.03
2023-05-08T02:15:57.359Z,5.07
2023-05-08T02:18:03.074Z,5.10
2023-05-08T02:20:15.343Z,4.47
2023-05-08T02:22:22.885Z,4.75
2023-05-08T02:24:28.763Z,4.53
2023-05-08T02:26:35.763Z,4.95
2023-05-08T02:28:42.882Z,4.65
2023-05-08T02:30:48.839Z,5.38
2023-05-08T02:32:58.161Z,5.15
2023-05-08T02:35:06.756Z,4.85
2023-05-08T02:37:16.035Z,5.00
2023-05-08T02:39:22.201Z,5.07
2023-05-08T02:41:31.765Z,5.30
2023-05-08T02:43:36.910Z,5.60
2023-05-08T02:45:48.834Z,5.00
2023-05-08T02:48:03.079Z,4.90
2023-05-08T02:50:16.471Z,4.82
2023-05-08T02:52:32.238Z,5.20
2023-05-08T02:54:43.585Z,5.32
2023-05-08T02:56:58.596Z,5.28
2023-05-08T02:59:12.974Z,4.72
2023-05-08T03:01:24.668Z,4.70
2023-05-08T03:03:38.256Z,4.80
2023-05-08T03:05:50.037Z,5.10
2023-05-08T03:08:02.604Z,5.13
2023-05-08T03:10:14.022Z,4.63
2023-05-08T03:12:23.776Z,4.75
2023-05-08T03:14:32.868Z,4.90
2023-05-08T03:16:41.716Z,5.05
2023-05-08T03:18:54.358Z,4.50
2023-05-08T03:21:02.371Z,5.22
2023-05-08T03:23:11.957Z,5.13
2023-05-08T03:25:19.788Z,4.78
2023-05-08T03:27:26.568Z,5.20
2023-05-08T03:29:32.281Z,5.15
2023-05-08T03:31:39.392Z,5.38
2023-05-08T03:33:47.239Z,5.22
2023-05-08T03:35:54.038Z,4.88
2023-05-08T03:37:58.994Z,5.30
2023-05-08T03:40:06.759Z,5.05
2023-05-08T03:42:21.307Z,5.18
2023-05-08T03:44:27.500Z,5.00
2023-05-08T03:46:34.459Z,5.00
2023-05-08T03:48:41.441Z,4.97
2023-05-08T03:50:47.233Z,5.85
2023-05-08T03:52:53.175Z,5.28
2023-05-08T03:54:58.251Z,5.43
2023-05-08T03:57:06.070Z,4.70
2023-05-08T03:59:17.967Z,4.75
2023-05-08T04:01:28.406Z,5.10
2023-05-08T04:03:44.634Z,4.68
2023-05-08T04:05:54.929Z,5.63
2023-05-08T04:08:06.935Z,4.63
2023-05-08T04:10:16.570Z,4.78
2023-05-08T04:12:29.436Z,4.88
2023-05-08T04:14:41.338Z,5.28
2023-05-08T04:16:52.787Z,4.80
2023-05-08T04:19:02.634Z,5.20
2023-05-08T04:21:13.682Z,5.72
2023-05-08T04:23:23.633Z,4.90
2023-05-08T04:25:31.632Z,4.72
2023-05-08T04:27:40.172Z,4.90
2023-05-08T04:29:45.978Z,5.15
2023-05-08T04:31:51.766Z,4.68
2023-05-08T04:33:57.517Z,4.70
2023-05-08T04:36:04.477Z,5.38
2023-05-08T04:38:11.154Z,4.88
2023-05-08T04:40:16.373Z,4.85
2023-05-08T04:42:22.196Z,4.88
2023-05-08T04:44:29.889Z,5.30
2023-05-08T04:46:34.976Z,5.22
2023-05-08T04:48:39.943Z,5.07
2023-05-08T04:50:44.977Z,4.75
2023-05-08T04:52:49.901Z,5.57
2023-05-08T04:54:55.184Z,5.55
2023-05-08T04:57:00.938Z,5.80
2023-05-08T04:59:06.904Z,5.78
2023-05-08T05:01:14.561Z,5.68
2023-05-08T05:03:19.960Z,5.40
2023-05-08T05:05:24.896Z,5.50
2023-05-08T05:07:29.951Z,5.20
2023-05-08T05:09:37.182Z,5.65
2023-05-08T05:11:42.920Z,5.95
2023-05-08T05:13:47.924Z,5.78
2023-05-08T05:15:54.632Z,5.43
2023-05-08T05:18:03.721Z,5.65
2023-05-08T05:20:10.434Z,6.25
2023-05-08T05:22:15.512Z,5.97
2023-05-08T05:24:20.481Z,6.18
2023-05-08T05:26:25.580Z,6.63
2023-05-08T05:28:30.990Z,5.57
2023-05-08T05:30:37.316Z,6.40
2023-05-08T05:32:42.532Z,6.38
2023-05-08T05:34:50.139Z,5.40
2023-05-08T05:36:55.647Z,5.72
2023-05-08T05:39:00.542Z,5.93
2023-05-08T05:41:05.436Z,5.65
2023-05-08T05:43:10.623Z,6.68
2023-05-08T05:45:16.022Z,5.72
2023-05-08T05:47:21.075Z,6.05
2023-05-08T05:49:26.070Z,6.63
2023-05-08T05:51:34.021Z,5.93
2023-05-08T05:53:39.317Z,6.35
2023-05-08T05:55:44.400Z,6.07
2023-05-08T05:57:49.318Z,6.03
2023-05-08T05:59:54.947Z,5.85
2023-05-08T06:02:00.654Z,6.22
2023-05-08T06:04:05.808Z,5.68
2023-05-08T06:06:11.714Z,5.68
2023-05-08T06:08:19.368Z,5.72
2023-05-08T06:10:24.251Z,6.05
2023-05-08T06:12:29.293Z,6.28
2023-05-08T06:14:34.086Z,5.55
2023-05-08T06:16:38.971Z,6.18
2023-05-08T06:18:44.355Z,5.88
2023-05-08T06:20:49.210Z,5.60
2023-05-08T06:22:54.556Z,6.28
2023-05-08T06:25:02.388Z,5.95
2023-05-08T06:27:07.376Z,6.35
2023-05-08T06:29:12.273Z,5.53
2023-05-08T06:31:17.810Z,6.18
2023-05-08T06:33:24.677Z,5.95
2023-05-08T06:35:31.006Z,6.55
2023-05-08T06:37:36.074Z,6.15
2023-05-08T06:39:40.963Z,6.43
2023-05-08T06:41:50.524Z,6.53
2023-05-08T06:44:04.369Z,5.78
2023-05-08T06:46:09.206Z,5.70
2023-05-08T06:48:14.130Z,6.13
2023-05-08T06:50:18.886Z,5.80
2023-05-08T06:52:25.927Z,6.25
2023-05-08T06:54:30.990Z,6.43
2023-05-08T06:56:36.025Z,6.63
2023-05-08T06:58:46.322Z,6.10
2023-05-08T07:00:55.829Z,6.30
2023-05-08T07:03:00.629Z,6.25
2023-05-08T07:05:06.154Z,6.57
2023-05-08T07:07:11.890Z,6.28
2023-05-08T07:09:17.496Z,6.30
2023-05-08T07:11:22.344Z,6.05
2023-05-08T07:13:27.227Z,6.45
2023-05-08T07:15:34.756Z,6.82
2023-05-08T07:17:39.846Z,7.28
2023-05-08T07:19:46.181Z,6.22
2023-05-08T07:21:51.002Z,6.30
2023-05-08T07:23:56.079Z,6.10
2023-05-08T07:26:01.361Z,6.55
2023-05-08T07:28:06.540Z,5.97
2023-05-08T07:30:12.474Z,6.85
2023-05-08T07:32:19.878Z,6.68
2023-05-08T07:34:24.810Z,6.57
2023-05-08T07:36:29.630Z,6.45
2023-05-08T07:38:34.410Z,6.22
2023-05-08T07:40:39.565Z,5.93
2023-05-08T07:42:45.586Z,6.55
2023-05-08T07:44:54.914Z,6.75
2023-05-08T07:47:00.522Z,6.70
2023-05-08T07:49:08.053Z,5.63
2023-05-08T07:51:13.852Z,6.25
2023-05-08T07:53:18.752Z,6.25
2023-05-08T07:55:24.530Z,5.97
2023-05-08T07:57:29.304Z,6.50
2023-05-08T07:59:34.701Z,6.25
2023-05-08T08:01:40.105Z,6.35
2023-05-08T08:03:45.322Z,6.38
2023-05-08T08:05:53.099Z,6.30
2023-05-08T08:07:58.317Z,6.10
2023-05-08T08:10:03.804Z,6.40
2023-05-08T08:12:08.846Z,6.30
2023-05-08T08:14:13.575Z,5.80
2023-05-08T08:16:18.389Z,5.78
2023-05-08T08:18:23.308Z,6.15
2023-05-08T08:20:28.364Z,5.32
2023-05-08T08:22:36.746Z,5.53
2023-05-08T08:24:42.260Z,5.40
2023-05-08T08:26:48.143Z,5.40
2023-05-08T08:28:53.124Z,5.90
2023-05-08T08:30:57.993Z,5.47
2023-05-08T08:33:03.799Z,5.53
2023-05-08T08:35:09.572Z,5.95
2023-05-08T08:37:14.640Z,5.72
2023-05-08T08:39:23.173Z,6.28
2023-05-08T08:41:28.445Z,5.65
2023-05-08T08:43:33.345Z,5.20
2023-05-08T08:45:39.624Z,5.63
2023-05-08T08:47:48.642Z,5.65
2023-05-08T08:49:54.522Z,5.60
2023-05-08T08:52:02.605Z,5.57
2023-05-08T08:54:12.611Z,5.25
2023-05-08T08:56:20.845Z,5.18
2023-05-08T08:58:36.681Z,5.40
2023-05-08T09:00:45.044Z,5.78
2023-05-08T09:02:50.430Z,5.53
2023-05-08T09:04:55.877Z,5.63
2023-05-08T09:07:03.237Z,5.65
2023-05-08T09:09:08.379Z,5.40
2023-05-08T09:11:13.451Z,5.75
2023-05-08T09:13:21.559Z,5.68
2023-05-08T09:15:26.829Z,6.10
2023-05-08T09:17:31.801Z,5.32
2023-05-08T09:19:37.695Z,5.07
2023-05-08T09:21:43.302Z,4.75
2023-05-08T09:24:07.458Z,5.60
2023-05-08T09:26:12.459Z,5.47
2023-05-08T09:28:24.793Z,5.25
2023-05-08T09:30:29.973Z,6.20
2023-05-08T09:32:36.986Z,5.38
2023-05-08T09:34:42.205Z,4.95
2023-05-08T09:36:47.425Z,5.53
2023-05-08T09:38:52.532Z,5.30
2023-05-08T09:41:09.641Z,5.20
2023-05-08T09:43:18.120Z,5.50
2023-05-08T09:45:35.653Z,5.22
2023-05-08T09:47:41.659Z,5.78
2023-05-08T09:50:03.077Z,5.93
2023-05-08T09:52:08.716Z,6.07
2023-05-08T09:54:21.349Z,5.63
2023-05-08T09:56:42.399Z,5.80
2023-05-08T09:58:47.884Z,5.60
2023-05-08T10:00:55.520Z,5.63
2023-05-08T10:03:02.485Z,5.70
2023-05-08T10:05:08.666Z,5.88
2023-05-08T10:07:13.913Z,6.03
2023-05-08T10:09:19.161Z,5.82
2023-05-08T10:11:24.101Z,5.43
2023-05-08T10:13:29.247Z,6.38
2023-05-08T10:15:34.866Z,5.57
2023-05-08T10:17:52.706Z,5.95
2023-05-08T10:20:04.064Z,6.28
2023-05-08T10:22:14.002Z,6.05
2023-05-08T10:24:20.835Z,6.38
2023-05-08T10:26:30.286Z,6.78
2023-05-08T10:28:40.331Z,6.25
2023-05-08T10:30:50.981Z,6.28
2023-05-08T10:33:01.460Z,5.68
2023-05-08T10:35:08.283Z,6.18
2023-05-08T10:37:14.164Z,5.80
2023-05-08T10:39:19.828Z,6.07
2023-05-08T10:41:25.064Z,6.60
2023-05-08T10:43:33.340Z,5.95
2023-05-08T10:45:39.056Z,6.72
2023-05-08T10:47:54.203Z,6.55
2023-05-08T10:50:08.519Z,6.35
2023-05-08T10:52:21.300Z,6.68
2023-05-08T10:54:34.056Z,6.65
2023-05-08T10:56:41.077Z,6.57
2023-05-08T10:58:45.894Z,6.13
2023-05-08T11:01:19.124Z,6.90
2023-05-08T11:03:32.248Z,6.00
2023-05-08T11:05:51.904Z,6.05
2023-05-08T11:07:57.816Z,6.43
2023-05-08T11:10:15.722Z,6.35
2023-05-08T11:12:26.646Z,6.80
2023-05-08T11:14:32.565Z,6.50
2023-05-08T11:17:08.127Z,6.63
2023-05-08T11:19:20.202Z,6.35
2023-05-08T11:21:27.884Z,7.57
2023-05-08T11:23:34.041Z,6.15
2023-05-08T11:25:47.945Z,6.65
2023-05-08T11:28:15.973Z,6.60
2023-05-08T11:30:29.393Z,6.65
2023-05-08T11:33:02.907Z,6.85
2023-05-08T11:37:24.439Z,6.65
2023-05-08T11:39:29.368Z,6.47
2023-05-08T11:41:34.224Z,6.65
2023-05-08T11:44:20.735Z,6.60
2023-05-08T11:46:25.789Z,6.47
2023-05-08T11:48:30.694Z,6.50
2023-05-08T11:50:38.989Z,6.90
2023-05-08T11:52:46.617Z,5.90
2023-05-08T11:54:51.825Z,6.35
2023-05-08T11:56:57.806Z,6.32
2023-05-08T11:59:08.927Z,5.95
2023-05-08T12:01:13.916Z,7.10
2023-05-08T12:03:21.693Z,6.40
2023-05-08T12:05:30.208Z,5.85
2023-05-08T12:07:35.234Z,6.95
2023-05-08T12:09:42.692Z,6.28
2023-05-08T12:11:48.368Z,5.60
2023-05-08T12:13:54.305Z,6.65
2023-05-08T12:16:01.178Z,6.18
2023-05-08T12:18:06.230Z,6.45
2023-05-08T12:20:16.142Z,6.05
2023-05-08T12:22:21.852Z,5.55
2023-05-08T12:24:28.228Z,6.18
2023-05-08T12:26:38.196Z,5.78
2023-05-08T12:28:43.201Z,5.97
2023-05-08T12:30:48.150Z,5.68
2023-05-08T12:32:54.163Z,5.13
2023-05-08T12:34:59.871Z,5.72
2023-05-08T12:37:06.238Z,5.57
2023-05-08T12:39:16.044Z,6.60
2023-05-08T12:41:26.647Z,5.65
2023-05-08T12:43:37.961Z,5.43
2023-05-08T12:45:45.504Z,5.82
2023-05-08T12:47:51.406Z,6.45
2023-05-08T12:50:00.848Z,6.25
2023-05-08T12:52:07.214Z,5.53
2023-05-08T12:54:12.044Z,6.22
2023-05-08T12:56:17.156Z,5.97
2023-05-08T12:58:23.468Z,5.32
2023-05-08T13:00:38.201Z,6.03
2023-05-08T13:02:49.538Z,5.50
2023-05-08T13:04:57.349Z,5.80
2023-05-08T13:07:02.340Z,5.80
2023-05-08T13:09:07.496Z,5.72
2023-05-08T13:11:13.114Z,6.35
2023-05-08T13:13:20.031Z,5.82
2023-05-08T13:15:24.918Z,5.57
2023-05-08T13:17:32.350Z,5.60
2023-05-08T13:19:37.469Z,5.80
2023-05-08T13:21:42.263Z,5.45
2023-05-08T13:23:47.074Z,4.82
2023-05-08T13:25:52.124Z,5.07
2023-05-08T13:27:57.004Z,4.55
2023-05-08T13:30:01.817Z,5.45
2023-05-08T13:32:07.042Z,4.93
2023-05-08T13:34:15.244Z,5.65
2023-05-08T13:36:20.901Z,5.65
2023-05-08T13:38:25.942Z,5.15
2023-05-08T13:40:31.478Z,5.57
2023-05-08T13:42:36.237Z,6.30
2023-05-08T13:44:40.992Z,5.47
2023-05-08T13:46:46.223Z,6.55
2023-05-08T13:48:51.049Z,6.63
2023-05-08T13:50:58.465Z,6.80
2023-05-08T13:53:03.344Z,6.50
2023-05-08T13:55:09.564Z,6.32
2023-05-08T13:57:14.473Z,6.07
2023-05-08T13:59:19.206Z,6.70
2023-05-08T14:01:26.826Z,6.30
2023-05-08T14:03:32.190Z,6.40
2023-05-08T14:05:37.553Z,6.35
2023-05-08T14:07:45.326Z,6.40
2023-05-08T14:09:50.378Z,5.82
2023-05-08T14:11:55.345Z,6.43
2023-05-08T14:14:00.342Z,6.30
2023-05-08T14:16:08.398Z,6.50
2023-05-08T14:18:13.414Z,6.97
2023-05-08T14:20:18.223Z,6.65
2023-05-08T14:22:23.217Z,6.72
2023-05-08T14:24:30.586Z,6.55
2023-05-08T14:26:35.476Z,6.40
2023-05-08T14:28:40.495Z,6.43
2023-05-08T14:30:45.307Z,7.30
2023-05-08T14:32:50.169Z,6.75
2023-05-08T14:34:55.096Z,7.03
2023-05-08T14:36:59.822Z,5.80
2023-05-08T14:39:04.645Z,5.88
2023-05-08T14:41:12.526Z,5.53
2023-05-08T14:43:17.545Z,5.97
2023-05-08T14:45:22.576Z,6.97
2023-05-08T14:47:27.516Z,6.82
2023-05-08T14:49:38.062Z,6.45
2023-05-08T14:51:44.338Z,6.00
2023-05-08T14:53:49.445Z,6.85
2023-05-08T14:55:54.968Z,6.18
2023-05-08T14:58:03.012Z,6.90
2023-05-08T15:00:10.236Z,6.45
2023-05-08T15:02:15.637Z,6.35
2023-05-08T15:04:20.783Z,6.60
2023-05-08T15:06:31.356Z,6.50
2023-05-08T15:08:36.369Z,6.57
2023-05-08T15:10:41.178Z,6.82
2023-05-08T15:12:45.967Z,6.28
2023-05-08T15:14:53.619Z,6.32
2023-05-08T15:16:58.466Z,6.32
2023-05-08T15:19:03.311Z,6.45
2023-05-08T15:21:08.669Z,6.22
2023-05-08T15:23:13.695Z,6.55
2023-05-08T15:25:18.636Z,5.53
2023-05-08T15:27:23.467Z,6.05
2023-05-08T15:29:28.574Z,6.10
2023-05-08T15:31:36.090Z,6.35
2023-05-08T15:33:45.233Z,5.50
2023-05-08T15:35:50.341Z,5.63
2023-05-08T15:37:55.192Z,4.93
2023-05-08T15:40:00.028Z,4.97
2023-05-08T15:42:04.899Z,4.10
2023-05-08T15:44:09.778Z,4.97
2023-05-08T15:46:14.568Z,4.85
2023-05-08T15:48:21.980Z,5.70
2023-05-08T15:50:26.750Z,4.97
2023-05-08T15:52:31.496Z,6.03
2023-05-08T15:54:36.306Z,5.88
2023-05-08T15:56:41.172Z,5.85
2023-05-08T15:58:46.135Z,5.80
2023-05-08T16:00:51.042Z,5.28
2023-05-08T16:02:55.978Z,5.75
2023-05-08T16:05:03.406Z,5.55
2023-05-08T16:07:08.455Z,5.60
2023-05-08T16:09:13.401Z,5.00
2023-05-08T16:11:18.258Z,5.18
2023-05-08T16:13:23.122Z,5.60
2023-05-08T16:15:27.985Z,5.50
2023-05-08T16:17:32.850Z,4.93
2023-05-08T16:19:40.820Z,5.20
2023-05-08T16:21:48.573Z,5.43
2023-05-08T16:23:53.659Z,5.38
2023-05-08T16:25:58.661Z,5.00
2023-05-08T16:28:03.689Z,5.70
2023-05-08T16:30:10.402Z,5.05
2023-05-08T16:32:16.601Z,4.78
2023-05-08T16:34:21.499Z,5.20
2023-05-08T16:36:26.950Z,5.53
2023-05-08T16:38:34.384Z,4.88
2023-05-08T16:40:39.420Z,4.63
2023-05-08T16:42:44.194Z,5.32
2023-05-08T16:44:49.021Z,4.85
2023-05-08T16:46:54.159Z,4.63
2023-05-08T16:48:59.035Z,4.65
2023-05-08T16:51:03.809Z,4.10
2023-05-08T16:53:08.786Z,3.65
2023-05-08T16:55:16.463Z,4.00
2023-05-08T16:57:21.442Z,3.70
2023-05-08T16:59:26.424Z,4.20
2023-05-08T17:01:31.416Z,4.30
2023-05-08T17:03:37.108Z,4.07
2023-05-08T17:05:42.250Z,3.78
2023-05-08T17:07:47.032Z,4.35
2023-05-08T17:09:53.274Z,3.80
2023-05-08T17:12:02.026Z,3.80
2023-05-08T17:14:07.069Z,4.03
2023-05-08T17:16:12.210Z,3.85
2023-05-08T17:18:17.046Z,3.67
2023-05-08T17:20:22.425Z,3.92
2023-05-08T17:22:27.441Z,4.18
2023-05-08T17:24:32.826Z,3.83
2023-05-08T17:26:37.613Z,3.97
2023-05-08T17:28:45.086Z,4.25
2023-05-08T17:30:49.883Z,3.58
2023-05-08T17:32:54.920Z,3.83
2023-05-08T17:34:59.997Z,3.33
2023-05-08T17:37:04.856Z,4.70
2023-05-08T17:39:09.906Z,3.90
2023-05-08T17:41:14.891Z,3.70
2023-05-08T17:43:20.685Z,3.75
2023-05-08T17:45:28.600Z,3.83
2023-05-08T17:47:33.764Z,3.92
2023-05-08T17:49:38.514Z,4.25
2023-05-08T17:51:44.090Z,4.60
2023-05-08T17:53:48.917Z,4.05
2023-05-08T17:55:54.337Z,4.22
2023-05-08T17:57:59.098Z,4.72
2023-05-08T18:00:03.998Z,5.00
2023-05-08T18:02:16.069Z,5.68
2023-05-08T18:04:21.313Z,5.28
2023-05-08T18:06:26.233Z,5.60
2023-05-08T18:08:31.140Z,5.10
2023-05-08T18:10:39.536Z,5.03
2023-05-08T18:12:44.493Z,6.00
2023-05-08T18:14:49.444Z,5.55
2023-05-08T18:16:54.219Z,5.75
2023-05-08T18:19:01.636Z,5.93
2023-05-08T18:21:07.139Z,5.55
2023-05-08T18:23:11.971Z,5.43
2023-05-08T18:25:17.209Z,5.78
2023-05-08T18:27:22.100Z,5.82
2023-05-08T18:29:26.930Z,5.72
2023-05-08T18:31:31.760Z,6.07
2023-05-08T18:33:37.295Z,5.95
2023-05-08T18:35:45.080Z,5.63
2023-05-08T18:37:50.095Z,5.28
2023-05-08T18:39:55.217Z,6.13
2023-05-08T18:42:00.044Z,5.50
2023-05-08T18:44:05.479Z,5.70
2023-05-08T18:46:12.455Z,6.30
2023-05-08T18:48:17.366Z,6.50
2023-05-08T18:50:22.593Z,6.40
2023-05-08T18:52:30.489Z,7.20
2023-05-08T18:54:35.371Z,6.82
2023-05-08T18:56:40.688Z,6.55
2023-05-08T18:58:46.814Z,7.28
2023-05-08T19:00:51.713Z,6.88
2023-05-08T19:02:56.775Z,7.60
2023-05-08T19:05:01.757Z,6.72
2023-05-08T19:07:06.680Z,6.80
2023-05-08T19:09:14.189Z,6.72
2023-05-08T19:11:19.080Z,7.43
2023-05-08T19:13:24.205Z,7.78
2023-05-08T19:15:29.381Z,7.03
2023-05-08T19:17:35.634Z,7.53
2023-05-08T19:19:40.726Z,7.80
2023-05-08T19:21:45.768Z,7.03
2023-05-08T19:23:51.193Z,7.40
2023-05-08T19:25:58.692Z,7.10
2023-05-08T19:28:04.266Z,7.25
2023-05-08T19:30:10.556Z,7.22
2023-05-08T19:32:15.663Z,8.02
2023-05-08T19:34:20.866Z,7.88
2023-05-08T19:36:25.741Z,8.18
2023-05-08T19:38:30.550Z,7.63
2023-05-08T19:40:48.058Z,7.50
2023-05-08T19:42:59.866Z,7.10
2023-05-08T19:45:05.012Z,7.80
2023-05-08T19:47:09.958Z,8.50
2023-05-08T19:49:17.418Z,8.13
2023-05-08T19:51:22.314Z,7.22
2023-05-08T19:53:27.262Z,7.00
2023-05-08T19:55:32.269Z,7.28
2023-05-08T19:57:37.484Z,7.00
2023-05-08T19:59:44.987Z,7.65
2023-05-08T20:01:50.627Z,7.82
2023-05-08T20:03:57.415Z,7.53
2023-05-08T20:06:04.242Z,8.25
2023-05-08T20:08:09.486Z,8.88
2023-05-08T20:10:15.120Z,7.03
2023-05-08T20:12:20.544Z,7.45
2023-05-08T20:14:25.767Z,7.70
2023-05-08T20:16:33.553Z,11.50
2023-05-08T20:18:38.609Z,11.15
2023-05-08T20:20:45.249Z,9.05
2023-05-08T20:22:50.672Z,7.63
2023-05-08T20:24:55.533Z,8.15
2023-05-08T20:27:00.772Z,7.43
2023-05-08T20:29:05.570Z,7.70
2023-05-08T20:31:10.693Z,7.75
2023-05-08T20:33:19.030Z,8.25
2023-05-08T20:35:24.122Z,7.78
2023-05-08T20:37:29.103Z,7.40
2023-05-08T20:39:34.167Z,7.22
2023-05-08T20:41:39.010Z,7.93
2023-05-08T20:43:43.942Z,8.00
2023-05-08T20:45:49.386Z,8.63
2023-05-08T20:47:54.345Z,8.35
2023-05-08T20:50:01.975Z,8.68
2023-05-08T20:52:07.482Z,7.90
2023-05-08T20:54:12.436Z,7.85
2023-05-08T20:56:18.921Z,8.50
2023-05-08T20:58:24.125Z,8.38
2023-05-08T21:00:29.213Z,7.97
2023-05-08T21:02:34.426Z,8.13
2023-05-08T21:04:39.446Z,8.15
2023-05-08T21:06:46.933Z,8.07
2023-05-08T21:08:52.460Z,8.30
2023-05-08T21:10:57.437Z,8.18
2023-05-08T21:13:02.486Z,7.85
2023-05-08T21:15:08.369Z,7.68
2023-05-08T21:17:13.326Z,7.72
2023-05-08T21:19:18.517Z,7.43
2023-05-08T21:21:23.592Z,7.95
2023-05-08T21:23:32.597Z,8.65
2023-05-08T21:25:37.849Z,8.20
2023-05-08T21:27:42.715Z,8.98
2023-05-08T21:29:47.511Z,8.30
2023-05-08T21:31:52.348Z,8.38
2023-05-08T21:33:57.500Z,8.40
2023-05-08T21:36:03.851Z,7.95
2023-05-08T21:38:08.699Z,8.75
2023-05-08T21:40:16.362Z,8.13
2023-05-08T21:42:21.244Z,7.97
2023-05-08T21:44:26.024Z,8.90
2023-05-08T21:46:31.215Z,8.50
2023-05-08T21:48:36.533Z,8.32
2023-05-08T21:50:41.508Z,8.52
2023-05-08T21:52:46.440Z,8.65
2023-05-08T21:54:51.614Z,8.75
2023-05-08T21:56:59.151Z,8.20
2023-05-08T21:59:04.087Z,7.90
2023-05-08T22:01:09.306Z,7.35
2023-05-08T22:03:14.485Z,7.78
2023-05-08T22:05:19.449Z,8.57
2023-05-08T22:07:24.601Z,8.10
2023-05-08T22:09:29.955Z,7.65
2023-05-08T22:11:35.085Z,8.27
2023-05-08T22:13:42.677Z,7.82
2023-05-08T22:15:47.842Z,8.68
2023-05-08T22:17:52.904Z,7.38
2023-05-08T22:19:58.010Z,8.05
2023-05-08T22:22:02.889Z,7.47
2023-05-08T22:24:09.203Z,8.15
2023-05-08T22:26:14.176Z,7.22
2023-05-08T22:28:19.067Z,7.72
2023-05-08T22:30:27.069Z,7.90
2023-05-08T22:32:32.287Z,7.78
2023-05-08T22:34:37.383Z,8.82
2023-05-08T22:36:42.254Z,8.75
2023-05-08T22:38:47.343Z,8.43
2023-05-08T22:40:52.921Z,7.30
2023-05-08T22:42:59.346Z,8.30
2023-05-08T22:45:04.740Z,8.45
2023-05-08T22:47:12.868Z,8.77
2023-05-08T22:49:18.176Z,8.38
2023-05-08T22:51:23.206Z,8.38
2023-05-08T22:53:28.436Z,8.63
2023-05-08T22:55:33.354Z,8.35
2023-05-08T22:57:38.199Z,7.57
2023-05-08T22:59:43.015Z,8.63
2023-05-08T23:01:48.016Z,9.07
2023-05-08T23:03:56.872Z,8.38
2023-05-08T23:06:01.894Z,8.90
2023-05-08T23:08:06.936Z,8.68
2023-05-08T23:10:14.557Z,8.52
2023-05-08T23:12:19.471Z,8.82
2023-05-08T23:14:24.547Z,8.75
2023-05-08T23:16:29.591Z,8.93
2023-05-08T23:18:34.704Z,8.18
2023-05-08T23:20:42.265Z,8.02
2023-05-08T23:22:47.187Z,8.70
2023-05-08T23:24:51.976Z,8.13
2023-05-08T23:26:57.302Z,9.23
2023-05-08T23:29:02.133Z,9.05
2023-05-08T23:31:07.410Z,9.57
2023-05-08T23:33:12.256Z,8.20
2023-05-08T23:35:17.253Z,7.45
2023-05-08T23:37:25.252Z,7.80
2023-05-08T23:39:30.465Z,8.82
2023-05-08T23:41:36.248Z,8.07
2023-05-08T23:43:41.193Z,9.02
2023-05-08T23:45:46.317Z,8.02
2023-05-08T23:47:51.343Z,8.10
2023-05-08T23:49:56.252Z,7.85
2023-05-08T23:52:01.219Z,8.98
2023-05-08T23:54:08.834Z,7.32
2023-05-08T23:56:14.048Z,8.02
2023-05-08T23:58:19.008Z,8.93
